createdAt,value
2018-08-04T00:01:16.627Z,23.80
2018-08-04T00:03:49.327Z,23.80
2018-08-04T00:06:18.067Z,23.80
2018-08-04T00:08:46.890Z,23.80
2018-08-04T00:11:15.767Z,23.70
2018-08-04T00:13:44.546Z,23.60
2018-08-04T00:16:13.351Z,23.50
2018-08-04T00:18:42.223Z,23.30
2018-08-04T00:21:15.726Z,23.20
2018-08-04T00:23:44.522Z,23.10
2018-08-04T00:26:16.828Z,23.00
2018-08-04T00:28:47.702Z,23.00
2018-08-04T00:31:17.615Z,22.90
2018-08-04T00:33:46.504Z,22.90
2018-08-04T00:36:16.342Z,22.80
2018-08-04T00:38:47.099Z,22.70
2018-08-04T00:41:16.874Z,22.60
2018-08-04T00:43:46.707Z,22.60
2018-08-04T00:46:19.690Z,22.60
2018-08-04T00:48:56.742Z,22.50
2018-08-04T00:51:36.408Z,22.50
2018-08-04T00:54:15.302Z,22.40
2018-08-04T00:56:48.742Z,22.30
2018-08-04T00:59:33.857Z,22.20
2018-08-04T01:02:13.175Z,22.20
2018-08-04T01:04:43.035Z,22.20
2018-08-04T01:07:25.152Z,22.10
2018-08-04T01:10:06.602Z,21.90
2018-08-04T01:12:38.967Z,21.80
2018-08-04T01:15:11.730Z,21.70
2018-08-04T01:17:40.609Z,21.70
2018-08-04T01:20:12.526Z,21.70
2018-08-04T01:22:42.342Z,21.70
2018-08-04T01:25:11.191Z,21.80
2018-08-04T01:27:42.079Z,21.90
2018-08-04T01:30:11.030Z,22.00
2018-08-04T01:32:39.906Z,22.00
2018-08-04T01:35:08.734Z,22.10
2018-08-04T01:37:38.570Z,22.20
2018-08-04T01:40:07.499Z,22.20
2018-08-04T01:42:39.654Z,22.30
2018-08-04T01:45:11.027Z,22.30
2018-08-04T01:47:39.830Z,22.30
2018-08-04T01:50:12.051Z,22.30
2018-08-04T01:52:40.951Z,22.40
2018-08-04T01:55:11.207Z,22.50
2018-08-04T01:57:40.178Z,22.50
2018-08-04T02:00:09.399Z,22.60
2018-08-04T02:02:41.774Z,22.50
2018-08-04T02:05:14.611Z,22.50
2018-08-04T02:07:46.783Z,22.40
2018-08-04T02:10:15.730Z,22.30
2018-08-04T02:12:45.581Z,22.30
2018-08-04T02:15:14.494Z,22.30
2018-08-04T02:17:46.930Z,22.30
2018-08-04T02:20:17.898Z,22.20
2018-08-04T02:22:46.808Z,22.20
2018-08-04T02:25:16.722Z,22.20
2018-08-04T02:27:45.599Z,22.20
2018-08-04T02:30:14.483Z,22.10
2018-08-04T02:32:43.363Z,22.10
2018-08-04T02:35:14.126Z,22.00
2018-08-04T02:37:42.986Z,21.90
2018-08-04T02:40:11.898Z,21.90
2018-08-04T02:42:40.869Z,21.90
2018-08-04T02:45:10.818Z,21.90
2018-08-04T02:47:39.750Z,21.90
2018-08-04T02:50:09.282Z,21.90
2018-08-04T02:52:40.130Z,21.80
2018-08-04T02:55:09.621Z,21.80
2018-08-04T02:57:38.498Z,21.70
2018-08-04T03:00:07.486Z,21.70
2018-08-04T03:05:06.650Z,21.70
2018-08-04T03:07:35.535Z,21.60
2018-08-04T03:10:10.250Z,21.50
2018-08-04T03:12:39.134Z,21.30
2018-08-04T03:15:08.127Z,21.20
2018-08-04T03:17:38.068Z,21.20
2018-08-04T03:20:08.438Z,21.10
2018-08-04T03:22:37.593Z,21.10
2018-08-04T03:25:08.566Z,21.00
2018-08-04T03:27:41.098Z,21.00
2018-08-04T03:30:11.967Z,21.00
2018-08-04T03:32:41.810Z,20.90
2018-08-04T03:35:10.834Z,20.80
2018-08-04T03:37:40.750Z,20.70
2018-08-04T03:40:10.730Z,20.70
2018-08-04T03:42:40.067Z,20.70
2018-08-04T03:45:10.016Z,20.70
2018-08-04T03:47:38.845Z,20.70
2018-08-04T03:50:11.238Z,20.70
2018-08-04T03:52:40.245Z,20.70
2018-08-04T03:55:09.045Z,20.70
2018-08-04T03:57:37.945Z,20.70
2018-08-04T04:00:07.370Z,20.70
2018-08-04T04:05:04.718Z,20.70
2018-08-04T04:07:35.622Z,20.90
2018-08-04T04:10:05.489Z,21.00
2018-08-04T04:12:34.287Z,21.10
2018-08-04T04:15:03.129Z,21.20
2018-08-04T04:17:43.922Z,21.20
2018-08-04T04:20:13.918Z,21.20
2018-08-04T04:22:43.795Z,21.20
2018-08-04T04:25:12.862Z,21.20
2018-08-04T04:27:41.918Z,21.10
2018-08-04T04:30:10.854Z,21.10
2018-08-04T04:32:40.630Z,21.10
2018-08-04T04:35:13.158Z,21.10
2018-08-04T04:37:42.666Z,21.10
2018-08-04T04:40:15.242Z,21.10
2018-08-04T04:42:45.038Z,21.10
2018-08-04T04:45:14.341Z,21.20
2018-08-04T04:47:43.232Z,21.20
2018-08-04T04:50:12.218Z,21.30
2018-08-04T04:52:41.138Z,21.30
2018-08-04T04:55:12.022Z,21.40
2018-08-04T05:00:09.330Z,21.60
2018-08-04T05:02:41.778Z,21.60
2018-08-04T05:05:10.699Z,21.80
2018-08-04T05:07:40.646Z,21.90
2018-08-04T05:10:09.511Z,22.00
2018-08-04T05:12:43.216Z,22.20
2018-08-04T05:15:12.094Z,22.40
2018-08-04T05:17:42.834Z,22.60
2018-08-04T05:20:11.754Z,22.80
2018-08-04T05:22:40.567Z,22.90
2018-08-04T05:25:13.082Z,23.10
2018-08-04T05:27:43.942Z,23.20
2018-08-04T05:30:12.802Z,23.30
2018-08-04T05:32:41.707Z,23.30
2018-08-04T05:35:11.619Z,23.40
2018-08-04T05:37:42.302Z,23.50
2018-08-04T05:40:12.214Z,23.60
2018-08-04T05:42:41.042Z,23.80
2018-08-04T05:45:11.914Z,23.90
2018-08-04T05:47:40.690Z,24.00
2018-08-04T05:50:10.588Z,24.00
2018-08-04T05:52:40.402Z,24.10
2018-08-04T05:55:09.271Z,24.20
2018-08-04T05:57:38.234Z,24.20
2018-08-04T06:00:08.335Z,24.20
2018-08-04T06:02:37.145Z,24.10
2018-08-04T06:05:06.512Z,24.00
2018-08-04T06:07:35.350Z,24.10
2018-08-04T06:10:04.574Z,24.20
2018-08-04T06:12:34.714Z,24.50
2018-08-04T06:15:04.642Z,24.80
2018-08-04T06:17:34.519Z,25.00
2018-08-04T06:20:04.475Z,25.30
2018-08-04T06:22:36.523Z,25.50
2018-08-04T06:25:05.538Z,25.60
2018-08-04T06:27:34.302Z,25.80
2018-08-04T06:30:03.083Z,26.20
2018-08-04T06:32:33.918Z,26.80
2018-08-04T06:35:04.732Z,27.30
2018-08-04T06:37:33.718Z,27.70
2018-08-04T06:40:02.598Z,28.10
2018-08-04T06:42:32.375Z,28.50
2018-08-04T06:45:01.216Z,29.00
2018-08-04T06:47:30.107Z,29.60
2018-08-04T06:49:59.019Z,29.80
2018-08-04T06:52:27.882Z,30.00
2018-08-04T06:54:56.782Z,30.30
2018-08-04T06:57:26.566Z,30.20
2018-08-04T06:59:55.350Z,30.10
2018-08-04T07:02:24.126Z,30.00
2018-08-04T07:04:52.922Z,29.80
2018-08-04T07:07:22.781Z,29.50
2018-08-04T07:09:51.637Z,29.40
2018-08-04T07:12:21.521Z,29.40
2018-08-04T07:14:50.326Z,29.20
2018-08-04T07:17:19.106Z,29.10
2018-08-04T07:19:48.930Z,29.40
2018-08-04T07:22:17.734Z,29.60
2018-08-04T07:24:47.482Z,29.60
2018-08-04T07:27:16.370Z,29.30
2018-08-04T07:29:45.314Z,29.20
2018-08-04T07:32:14.298Z,29.00
2018-08-04T07:34:43.218Z,28.80
2018-08-04T07:37:12.998Z,28.70
2018-08-04T07:42:13.906Z,28.10
2018-08-04T07:44:42.750Z,28.00
2018-08-04T07:47:16.426Z,27.50
2018-08-04T07:49:52.953Z,27.40
2018-08-04T07:52:22.926Z,27.10
2018-08-04T07:55:03.600Z,26.60
2018-08-04T07:57:33.630Z,26.00
2018-08-04T08:00:04.246Z,25.60
2018-08-04T08:02:33.734Z,25.50
2018-08-04T08:05:06.701Z,25.50
2018-08-04T08:07:41.084Z,25.40
2018-08-04T08:10:13.370Z,25.10
2018-08-04T08:12:47.829Z,24.50
2018-08-04T08:15:16.905Z,24.20
2018-08-04T08:17:45.730Z,23.90
2018-08-04T08:20:14.554Z,23.80
2018-08-04T08:22:46.890Z,24.00
2018-08-04T08:25:16.557Z,24.20
2018-08-04T08:27:50.682Z,24.40
2018-08-04T08:30:19.740Z,24.50
2018-08-04T08:32:49.546Z,24.50
2018-08-04T08:35:19.758Z,24.80
2018-08-04T08:37:50.588Z,24.90
2018-08-04T08:40:20.377Z,25.10
2018-08-04T08:42:52.210Z,25.50
2018-08-04T08:45:38.067Z,25.80
2018-08-04T08:48:06.954Z,26.10
2018-08-04T08:50:36.690Z,26.40
2018-08-04T08:53:06.599Z,26.80
2018-08-04T08:55:37.374Z,27.20
2018-08-04T08:58:07.182Z,27.40
2018-08-04T09:00:35.922Z,27.70
2018-08-04T09:03:07.286Z,28.10
2018-08-04T09:05:41.258Z,28.40
2018-08-04T09:08:15.262Z,28.60
2018-08-04T09:10:51.438Z,28.70
2018-08-04T09:13:26.082Z,28.90
2018-08-04T09:16:00.582Z,29.10
2018-08-04T09:18:29.338Z,29.10
2018-08-04T09:21:10.442Z,29.20
2018-08-04T09:23:39.345Z,29.40
2018-08-04T09:26:08.221Z,29.60
2018-08-04T09:28:40.550Z,29.70
2018-08-04T09:31:09.358Z,30.00
2018-08-04T09:33:48.601Z,30.20
2018-08-04T09:36:17.469Z,30.50
2018-08-04T09:38:46.411Z,30.80
2018-08-04T09:41:16.282Z,32.10
2018-08-04T09:43:45.117Z,33.20
2018-08-04T09:46:13.973Z,34.70
2018-08-04T09:48:46.410Z,35.00
2018-08-04T09:51:15.249Z,34.70
2018-08-04T09:53:44.266Z,34.30
2018-08-04T09:56:14.157Z,33.80
2018-08-04T09:58:47.110Z,33.50
2018-08-04T10:01:21.398Z,33.70
2018-08-04T10:03:51.284Z,34.00
2018-08-04T10:06:20.438Z,34.80
2018-08-04T10:08:49.294Z,36.30
2018-08-04T10:11:18.143Z,36.30
2018-08-04T10:13:47.982Z,36.20
2018-08-04T10:16:16.874Z,35.80
2018-08-04T10:18:51.454Z,35.70
2018-08-04T10:21:21.334Z,35.70
2018-08-04T10:23:50.198Z,37.50
2018-08-04T10:26:19.060Z,38.90
2018-08-04T10:28:51.458Z,39.60
2018-08-04T10:31:20.362Z,40.50
2018-08-04T10:33:49.190Z,41.00
2018-08-04T10:36:17.997Z,41.50
2018-08-04T10:38:50.881Z,42.20
2018-08-04T10:43:48.278Z,42.60
2018-08-04T10:46:17.157Z,43.90
2018-08-04T10:48:46.942Z,45.50
2018-08-04T10:51:15.730Z,46.20
2018-08-04T10:56:15.018Z,45.20
2018-08-04T10:58:43.881Z,43.20
2018-08-04T11:01:12.778Z,42.50
2018-08-04T11:03:43.608Z,42.20
2018-08-04T11:06:12.438Z,42.10
2018-08-04T11:08:43.395Z,41.70
2018-08-04T11:11:12.194Z,42.50
2018-08-04T11:18:39.062Z,41.00
2018-08-04T11:21:11.334Z,41.50
2018-08-04T11:23:42.237Z,42.10
2018-08-04T11:26:11.026Z,42.00
2018-08-04T11:28:46.538Z,42.30
2018-08-04T11:31:15.390Z,44.30
2018-08-04T11:33:50.351Z,44.80
2018-08-04T11:36:20.210Z,44.40
2018-08-04T11:38:52.670Z,45.70
2018-08-04T11:41:24.529Z,46.10
2018-08-04T11:43:55.445Z,45.20
2018-08-04T11:46:25.297Z,44.10
2018-08-04T11:48:54.080Z,43.10
2018-08-04T11:51:22.925Z,43.70
2018-08-04T11:53:51.854Z,44.30
2018-08-04T11:56:21.581Z,45.70
2018-08-04T11:58:51.713Z,46.30
2018-08-04T12:01:20.489Z,46.80
2018-08-04T12:03:54.721Z,46.70
2018-08-04T12:06:24.525Z,46.10
2018-08-04T12:08:53.289Z,45.70
2018-08-04T12:11:24.062Z,45.90
2018-08-04T12:13:56.637Z,46.20
2018-08-04T12:16:29.473Z,46.60
2018-08-04T12:18:59.293Z,48.10
2018-08-04T12:21:30.169Z,48.00
2018-08-04T12:23:59.963Z,48.60
2018-08-04T12:26:33.876Z,48.90
2018-08-04T12:29:04.705Z,49.60
2018-08-04T12:31:35.537Z,48.60
2018-08-04T12:34:08.829Z,47.00
2018-08-04T12:36:39.609Z,45.80
2018-08-04T12:39:09.478Z,46.20
2018-08-04T12:41:39.141Z,46.80
2018-08-04T12:44:09.399Z,47.70
2018-08-04T12:46:44.155Z,47.20
2018-08-04T12:51:54.749Z,44.80
2018-08-04T12:54:30.252Z,44.00
2018-08-04T12:56:59.161Z,43.00
2018-08-04T12:59:37.996Z,40.90
2018-08-04T13:02:06.765Z,39.10
2018-08-04T13:04:37.477Z,37.50
2018-08-04T13:07:06.337Z,36.60
2018-08-04T13:09:35.109Z,35.80
2018-08-04T13:12:04.004Z,35.50
2018-08-04T13:14:32.721Z,36.50
2018-08-04T13:17:01.457Z,36.90
2018-08-04T13:21:59.765Z,35.80
2018-08-04T13:26:56.969Z,35.20
2018-08-04T13:29:25.775Z,35.40
2018-08-04T13:31:54.497Z,35.50
2018-08-04T13:34:23.281Z,35.60
2018-08-04T13:36:52.119Z,36.50
2018-08-04T13:39:24.113Z,36.70
2018-08-04T13:41:57.046Z,36.50
2018-08-04T13:44:37.722Z,36.80
2018-08-04T13:47:06.897Z,35.90
2018-08-04T13:49:35.633Z,34.90
2018-08-04T13:52:07.517Z,34.40
2018-08-04T13:54:36.290Z,34.10
2018-08-04T13:57:05.141Z,33.90
2018-08-04T13:59:34.217Z,34.00
2018-08-04T14:02:03.077Z,34.10
2018-08-04T14:04:34.757Z,34.30
2018-08-04T14:07:08.829Z,34.60
2018-08-04T14:09:38.721Z,35.30
2018-08-04T14:12:08.518Z,35.00
2018-08-04T14:14:37.253Z,34.40
2018-08-04T14:17:07.137Z,33.60
2018-08-04T14:19:42.649Z,33.30
2018-08-04T14:22:12.605Z,33.70
2018-08-04T14:24:45.110Z,33.90
2018-08-04T14:27:14.062Z,33.80
2018-08-04T14:29:44.921Z,33.30
2018-08-04T14:32:14.805Z,32.90
2018-08-04T14:34:43.646Z,32.60
2018-08-04T14:37:14.469Z,32.40
2018-08-04T14:39:46.661Z,32.30
2018-08-04T14:42:15.479Z,32.10
2018-08-04T14:44:45.267Z,31.90
2018-08-04T14:47:17.749Z,31.40
2018-08-04T14:49:46.598Z,30.30
2018-08-04T14:52:20.609Z,28.50
2018-08-04T14:54:54.500Z,27.00
2018-08-04T14:57:30.726Z,26.30
2018-08-04T15:00:00.517Z,26.20
2018-08-04T15:02:29.317Z,26.10
2018-08-04T15:04:58.187Z,26.30
2018-08-04T15:07:34.209Z,26.50
2018-08-04T15:10:03.035Z,26.80
2018-08-04T15:12:31.793Z,27.20
2018-08-04T15:15:05.365Z,27.70
2018-08-04T15:17:35.217Z,28.50
2018-08-04T15:20:04.341Z,30.20
2018-08-04T15:22:33.193Z,32.00
2018-08-04T15:25:02.401Z,34.00
2018-08-04T15:27:32.901Z,36.00
2018-08-04T15:30:01.771Z,37.70
2018-08-04T15:32:32.528Z,38.50
2018-08-04T15:35:02.265Z,38.50
2018-08-04T15:37:34.736Z,37.80
2018-08-04T15:40:03.548Z,36.40
2018-08-04T15:42:35.483Z,34.90
2018-08-04T15:45:06.100Z,33.70
2018-08-04T15:47:38.581Z,32.80
2018-08-04T15:50:09.428Z,32.00
2018-08-04T15:52:43.748Z,31.40
2018-08-04T15:55:19.069Z,31.00
2018-08-04T16:00:18.337Z,30.60
2018-08-04T16:02:47.189Z,30.80
2018-08-04T16:05:15.982Z,32.00
2018-08-04T16:07:44.749Z,34.10
2018-08-04T16:10:13.569Z,35.50
2018-08-04T16:12:44.388Z,36.30
2018-08-04T16:15:13.182Z,36.10
2018-08-04T16:17:42.898Z,35.80
2018-08-04T16:20:15.398Z,35.40
2018-08-04T16:22:44.341Z,34.90
2018-08-04T16:25:14.029Z,34.20
2018-08-04T16:27:43.132Z,33.60
2018-08-04T16:30:12.945Z,33.10
2018-08-04T16:32:43.860Z,32.70
2018-08-04T16:35:13.573Z,31.90
2018-08-04T16:37:42.288Z,30.70
2018-08-04T16:40:11.076Z,29.30
2018-08-04T16:42:39.860Z,28.60
2018-08-04T16:45:08.589Z,28.20
2018-08-04T16:47:37.348Z,28.10
2018-08-04T16:50:10.528Z,27.90
2018-08-04T16:52:39.300Z,28.50
2018-08-04T16:55:13.209Z,29.20
2018-08-04T16:57:42.001Z,29.50
2018-08-04T17:00:14.184Z,29.90
2018-08-04T17:02:42.988Z,30.10
2018-08-04T17:05:12.944Z,30.30
2018-08-04T17:07:41.777Z,30.90
2018-08-04T17:10:13.677Z,31.20
2018-08-04T17:12:42.569Z,31.10
2018-08-04T17:15:11.457Z,30.70
2018-08-04T17:17:40.205Z,30.30
2018-08-04T17:20:12.201Z,30.50
2018-08-04T17:22:41.073Z,30.70
2018-08-04T17:25:09.853Z,31.10
2018-08-04T17:27:38.676Z,31.30
2018-08-04T17:30:07.517Z,31.50
2018-08-04T17:32:40.981Z,31.80
2018-08-04T17:35:09.796Z,31.80
2018-08-04T17:37:40.590Z,31.80
2018-08-04T17:40:09.317Z,31.80
2018-08-04T17:42:44.026Z,31.60
2018-08-04T17:45:14.817Z,31.20
2018-08-04T17:47:43.561Z,30.80
2018-08-04T17:50:13.297Z,30.60
2018-08-04T17:52:42.157Z,30.50
2018-08-04T17:55:12.937Z,30.50
2018-08-04T17:57:41.804Z,30.50
2018-08-04T18:00:14.180Z,30.40
2018-08-04T18:02:42.972Z,30.40
2018-08-04T18:05:13.773Z,30.30
2018-08-04T18:07:47.074Z,30.10
2018-08-04T18:10:17.808Z,29.80
2018-08-04T18:12:52.400Z,29.40
2018-08-04T18:15:21.253Z,29.10
2018-08-04T18:17:55.844Z,28.80
2018-08-04T18:20:34.528Z,28.40
2018-08-04T18:23:03.380Z,28.00
2018-08-04T18:25:32.144Z,27.70
2018-08-04T18:28:01.089Z,27.30
2018-08-04T18:30:30.864Z,27.10
2018-08-04T18:32:59.600Z,26.80
2018-08-04T18:35:28.488Z,26.50
2018-08-04T18:37:59.306Z,26.30
2018-08-04T18:40:29.008Z,26.10
2018-08-04T18:45:30.697Z,25.80
2018-08-04T18:50:32.540Z,25.60
2018-08-04T18:53:01.331Z,25.50
2018-08-04T18:55:30.096Z,25.20
2018-08-04T18:57:58.896Z,25.00
2018-08-04T19:00:28.704Z,24.80
2018-08-04T19:05:26.920Z,24.50
2018-08-04T19:07:56.740Z,24.30
2018-08-04T19:12:57.193Z,24.00
2018-08-04T19:17:55.480Z,23.90
2018-08-04T19:20:25.245Z,23.80
2018-08-04T19:22:55.064Z,23.70
2018-08-04T19:25:26.948Z,23.60
2018-08-04T19:27:55.785Z,23.60
2018-08-04T19:30:25.544Z,23.50
2018-08-04T19:32:54.357Z,23.50
2018-08-04T19:35:28.652Z,23.40
2018-08-04T19:38:12.104Z,23.30
2018-08-04T19:40:40.868Z,23.20
2018-08-04T19:43:09.653Z,23.10
2018-08-04T19:45:41.493Z,23.10
2018-08-04T19:48:11.354Z,23.10
2018-08-04T19:50:40.109Z,23.00
2018-08-04T19:53:08.924Z,22.80
2018-08-04T19:55:38.693Z,22.70
2018-08-04T19:58:07.521Z,22.50
2018-08-04T20:00:36.284Z,22.40
2018-08-04T20:03:05.265Z,22.30
2018-08-04T20:05:34.044Z,22.20
2018-08-04T20:08:07.491Z,22.10
2018-08-04T20:10:38.301Z,22.10
2018-08-04T20:13:07.072Z,22.10
2018-08-04T20:18:05.332Z,22.10
2018-08-04T20:20:35.092Z,22.10
2018-08-04T20:23:03.984Z,22.10
2018-08-04T20:25:33.801Z,22.10
2018-08-04T20:28:02.596Z,22.10
2018-08-04T20:30:31.408Z,22.00
2018-08-04T20:33:00.325Z,22.00
2018-08-04T20:35:30.085Z,22.10
2018-08-04T20:40:27.352Z,22.00
2018-08-04T20:42:59.676Z,21.90
2018-08-04T20:45:28.604Z,21.90
2018-08-04T20:47:58.352Z,21.70
2018-08-04T20:50:27.235Z,21.60
2018-08-04T20:52:56.223Z,21.60
2018-08-04T20:55:24.988Z,21.70
2018-08-04T20:57:55.854Z,21.80
2018-08-04T21:00:42.912Z,21.80
2018-08-04T21:03:13.080Z,21.70
2018-08-04T21:05:41.875Z,21.70
2018-08-04T21:08:10.792Z,21.60
2018-08-04T21:10:39.692Z,21.50
2018-08-04T21:13:09.079Z,21.40
2018-08-04T21:15:39.032Z,21.30
2018-08-04T21:18:10.036Z,21.30
2018-08-04T21:20:57.476Z,21.30
2018-08-04T21:23:26.524Z,21.30
2018-08-04T21:25:56.424Z,21.40
2018-08-04T21:28:26.388Z,21.40
2018-08-04T21:30:55.448Z,21.30
2018-08-04T21:35:57.338Z,21.10
2018-08-04T21:41:01.280Z,20.90
2018-08-04T21:43:35.632Z,21.00
2018-08-04T21:46:04.464Z,21.00
2018-08-04T21:48:35.376Z,21.00
2018-08-04T21:51:06.349Z,20.90
2018-08-04T21:53:36.472Z,20.80
2018-08-04T21:56:05.500Z,20.70
2018-08-04T21:58:38.200Z,20.70
2018-08-04T22:01:12.117Z,20.60
2018-08-04T22:03:42.436Z,20.60
2018-08-04T22:06:11.659Z,20.50
2018-08-04T22:08:56.096Z,20.60
2018-08-04T22:11:25.980Z,20.60
2018-08-04T22:13:55.952Z,20.60
2018-08-04T22:16:26.804Z,20.50
2018-08-04T22:18:55.879Z,20.40
2018-08-04T22:21:24.832Z,20.40
2018-08-04T22:23:54.712Z,20.30
2018-08-04T22:26:28.092Z,20.20
2018-08-04T22:28:57.059Z,20.20
2018-08-04T22:31:26.912Z,20.20
2018-08-04T22:33:55.824Z,20.20
2018-08-04T22:36:27.968Z,20.20
2018-08-04T22:38:58.787Z,20.20
2018-08-04T22:41:31.420Z,20.20
2018-08-04T22:44:04.252Z,20.30
2018-08-04T22:46:33.212Z,20.30
2018-08-04T22:49:03.053Z,20.30
2018-08-04T22:51:32.884Z,20.20
2018-08-04T22:54:01.876Z,20.20
2018-08-04T22:56:30.775Z,20.20
2018-08-04T22:59:01.721Z,20.20
2018-08-04T23:01:32.538Z,20.10
2018-08-04T23:04:02.360Z,20.00
2018-08-04T23:06:36.568Z,19.90
2018-08-04T23:09:07.695Z,19.80
2018-08-04T23:11:36.625Z,19.80
2018-08-04T23:14:07.523Z,19.70
2018-08-04T23:16:36.463Z,19.70
2018-08-04T23:19:06.451Z,19.70
2018-08-04T23:21:35.664Z,19.70
2018-08-04T23:24:05.653Z,19.70
2018-08-04T23:26:35.383Z,19.70
2018-08-04T23:29:08.243Z,19.70
2018-08-04T23:31:37.156Z,19.60
2018-08-04T23:34:06.576Z,19.60
2018-08-04T23:39:01.828Z,19.50
2018-08-04T23:41:31.681Z,19.50
2018-08-04T23:44:03.925Z,19.50
2018-08-04T23:46:34.744Z,19.50
2018-08-04T23:54:02.697Z,19.40
2018-08-04T23:56:33.532Z,19.40
2018-08-04T23:59:02.392Z,19.40
